createdAt,value
2023-01-06T00:01:50.055Z,100244.16
2023-01-06T00:04:18.135Z,100243.56
2023-01-06T00:06:46.030Z,100255.78
2023-01-06T00:09:14.041Z,100269.03
2023-01-06T00:11:42.300Z,100267.13
2023-01-06T00:14:10.202Z,100275.66
2023-01-06T00:16:38.271Z,100261.47
2023-01-06T00:19:06.080Z,100265.72
2023-01-06T00:21:33.718Z,100264.22
2023-01-06T00:24:01.589Z,100260.72
2023-01-06T00:26:30.159Z,100260.34
2023-01-06T00:28:58.286Z,100250.75
2023-01-06T00:31:27.978Z,100260.16
2023-01-06T00:33:57.367Z,100267.06
2023-01-06T00:36:26.460Z,100274.00
2023-01-06T00:38:54.536Z,100279.53
2023-01-06T00:41:40.921Z,100290.03
2023-01-06T00:44:09.966Z,100293.75
2023-01-06T00:46:38.059Z,100303.78
2023-01-06T00:49:07.439Z,100298.06
2023-01-06T00:51:37.269Z,100298.44
2023-01-06T00:54:09.395Z,100300.16
2023-01-06T00:56:38.768Z,100301.50
2023-01-06T00:59:08.726Z,100301.56
2023-01-06T01:01:37.358Z,100307.41
2023-01-06T01:04:05.155Z,100311.50
2023-01-06T01:06:33.489Z,100308.09
2023-01-06T01:09:01.525Z,100321.59
2023-01-06T01:11:49.583Z,100320.81
2023-01-06T01:14:19.809Z,100323.62
2023-01-06T01:16:47.692Z,100333.34
2023-01-06T01:19:16.264Z,100332.41
2023-01-06T01:21:47.357Z,100332.94
2023-01-06T01:24:15.350Z,100340.00
2023-01-06T01:26:43.467Z,100339.88
2023-01-06T01:29:16.623Z,100347.34
2023-01-06T01:31:44.759Z,100347.34
2023-01-06T01:34:14.976Z,100349.06
2023-01-06T01:36:45.989Z,100360.59
2023-01-06T01:39:16.357Z,100349.69
2023-01-06T01:41:45.344Z,100353.28
2023-01-06T01:44:47.318Z,100342.63
2023-01-06T01:47:19.965Z,100343.38
2023-01-06T01:49:54.319Z,100353.56
2023-01-06T01:52:22.929Z,100350.50
2023-01-06T01:54:51.655Z,100348.97
2023-01-06T01:57:29.400Z,100351.12
2023-01-06T01:59:58.806Z,100349.41
2023-01-06T02:02:29.972Z,100352.47
2023-01-06T02:04:58.025Z,100355.59
2023-01-06T02:07:27.613Z,100361.22
2023-01-06T02:10:03.005Z,100372.53
2023-01-06T02:12:31.271Z,100364.72
2023-01-06T02:14:59.789Z,100377.69
2023-01-06T02:17:42.133Z,100371.72
2023-01-06T02:20:19.243Z,100378.25
2023-01-06T02:23:00.485Z,100380.50
2023-01-06T02:26:04.145Z,100380.75
2023-01-06T02:28:41.975Z,100383.72
2023-01-06T02:31:29.847Z,100377.50
2023-01-06T02:34:16.543Z,100388.16
2023-01-06T02:37:07.346Z,100383.69
2023-01-06T02:39:55.184Z,100377.53
2023-01-06T02:42:40.519Z,100376.66
2023-01-06T02:45:18.029Z,100386.72
2023-01-06T02:48:02.445Z,100374.94
2023-01-06T02:50:41.264Z,100373.63
2023-01-06T02:53:21.494Z,100375.87
2023-01-06T02:55:54.987Z,100386.22
2023-01-06T02:58:41.813Z,100395.16
2023-01-06T03:01:14.166Z,100399.94
2023-01-06T03:03:45.258Z,100400.78
2023-01-06T03:06:21.648Z,100406.81
2023-01-06T03:08:50.793Z,100413.72
2023-01-06T03:11:20.548Z,100410.88
2023-01-06T03:13:57.724Z,100407.63
2023-01-06T03:16:26.188Z,100415.91
2023-01-06T03:18:54.175Z,100412.75
2023-01-06T03:21:25.823Z,100413.84
2023-01-06T03:23:55.049Z,100410.78
2023-01-06T03:26:24.990Z,100413.16
2023-01-06T03:28:53.825Z,100405.25
2023-01-06T03:31:41.552Z,100412.81
2023-01-06T03:34:26.446Z,100412.88
2023-01-06T03:37:15.981Z,100414.13
2023-01-06T03:39:49.691Z,100406.44
2023-01-06T03:42:40.781Z,100400.63
2023-01-06T03:45:22.401Z,100402.34
2023-01-06T03:48:46.747Z,100403.66
2023-01-06T03:51:25.617Z,100407.41
2023-01-06T03:54:31.738Z,100412.56
2023-01-06T03:57:13.566Z,100413.91
2023-01-06T03:59:51.230Z,100411.88
2023-01-06T04:02:20.631Z,100421.78
2023-01-06T04:05:11.051Z,100427.19
2023-01-06T04:07:40.456Z,100437.06
2023-01-06T04:10:10.157Z,100440.50
2023-01-06T04:12:41.860Z,100444.63
2023-01-06T04:15:16.996Z,100452.69
2023-01-06T04:17:46.769Z,100451.66
2023-01-06T04:20:23.323Z,100444.22
2023-01-06T04:22:53.717Z,100452.88
2023-01-06T04:25:22.367Z,100451.09
2023-01-06T04:27:50.074Z,100441.44
2023-01-06T04:30:18.742Z,100444.69
2023-01-06T04:32:51.196Z,100441.59
2023-01-06T04:35:19.487Z,100447.16
2023-01-06T04:37:47.910Z,100446.22
2023-01-06T04:40:17.032Z,100439.59
2023-01-06T04:43:03.470Z,100436.28
2023-01-06T04:45:32.079Z,100439.06
2023-01-06T04:48:10.474Z,100450.09
2023-01-06T04:50:38.802Z,100440.78
2023-01-06T04:53:10.137Z,100443.50
2023-01-06T04:55:40.723Z,100450.41
2023-01-06T04:58:09.058Z,100466.03
2023-01-06T05:00:36.570Z,100467.50
2023-01-06T05:03:04.557Z,100475.91
2023-01-06T05:05:32.886Z,100482.34
2023-01-06T05:08:01.583Z,100485.53
2023-01-06T05:10:29.958Z,100488.66
2023-01-06T05:12:59.198Z,100498.09
2023-01-06T05:15:49.652Z,100485.44
2023-01-06T05:18:17.598Z,100494.81
2023-01-06T05:23:16.157Z,100508.75
2023-01-06T05:25:46.495Z,100510.81
2023-01-06T05:28:14.472Z,100505.63
2023-01-06T05:30:46.487Z,100505.50
2023-01-06T05:33:15.256Z,100497.38
2023-01-06T05:35:43.043Z,100504.19
2023-01-06T05:38:13.766Z,100518.87
2023-01-06T05:40:47.889Z,100519.44
2023-01-06T05:43:16.444Z,100515.06
2023-01-06T05:45:47.033Z,100522.06
2023-01-06T05:48:16.325Z,100527.53
2023-01-06T05:50:43.865Z,100537.69
2023-01-06T05:53:11.694Z,100552.13
2023-01-06T05:55:39.548Z,100541.75
2023-01-06T05:58:07.373Z,100555.50
2023-01-06T06:00:35.287Z,100551.69
2023-01-06T06:03:03.375Z,100554.88
2023-01-06T06:05:32.253Z,100566.34
2023-01-06T06:07:59.838Z,100561.94
2023-01-06T06:10:27.871Z,100565.28
2023-01-06T06:12:57.319Z,100557.34
2023-01-06T06:15:26.552Z,100554.16
2023-01-06T06:18:00.894Z,100561.25
2023-01-06T06:20:32.394Z,100563.69
2023-01-06T06:23:00.497Z,100562.97
2023-01-06T06:25:29.488Z,100552.25
2023-01-06T06:27:58.887Z,100564.62
2023-01-06T06:30:27.080Z,100563.59
2023-01-06T06:32:56.064Z,100569.88
2023-01-06T06:35:24.232Z,100574.47
2023-01-06T06:37:54.685Z,100583.63
2023-01-06T06:40:24.458Z,100583.03
2023-01-06T06:42:54.930Z,100592.63
2023-01-06T06:45:26.869Z,100592.47
2023-01-06T06:47:55.609Z,100588.63
2023-01-06T06:50:23.328Z,100596.84
2023-01-06T06:52:55.078Z,100591.19
2023-01-06T06:55:30.996Z,100594.56
2023-01-06T06:58:04.074Z,100599.69
2023-01-06T07:00:33.077Z,100595.06
2023-01-06T07:03:03.499Z,100599.41
2023-01-06T07:05:35.764Z,100602.38
2023-01-06T07:08:05.765Z,100607.94
2023-01-06T07:10:36.501Z,100614.22
2023-01-06T07:13:08.715Z,100619.16
2023-01-06T07:15:38.382Z,100613.28
2023-01-06T07:18:07.133Z,100621.31
2023-01-06T07:20:39.516Z,100623.44
2023-01-06T07:23:16.344Z,100633.94
2023-01-06T07:25:44.466Z,100638.19
2023-01-06T07:28:17.049Z,100639.12
2023-01-06T07:30:46.934Z,100642.56
2023-01-06T07:33:16.913Z,100634.28
2023-01-06T07:35:45.184Z,100628.34
2023-01-06T07:38:13.253Z,100634.00
2023-01-06T07:40:47.916Z,100627.63
2023-01-06T07:43:18.750Z,100624.28
2023-01-06T07:45:48.607Z,100623.84
2023-01-06T07:48:19.146Z,100627.78
2023-01-06T07:50:50.541Z,100633.13
2023-01-06T07:53:18.543Z,100626.84
2023-01-06T07:55:54.293Z,100631.13
2023-01-06T07:58:24.182Z,100627.44
2023-01-06T08:00:53.147Z,100636.25
2023-01-06T08:03:25.366Z,100637.25
2023-01-06T08:06:00.404Z,100631.66
2023-01-06T08:08:36.020Z,100634.16
2023-01-06T08:11:06.943Z,100632.72
2023-01-06T08:13:37.824Z,100626.66
2023-01-06T08:16:11.744Z,100617.09
2023-01-06T08:18:48.954Z,100616.94
2023-01-06T08:21:17.158Z,100604.19
2023-01-06T08:23:48.158Z,100599.44
2023-01-06T08:26:17.972Z,100597.78
2023-01-06T08:28:48.371Z,100593.66
2023-01-06T08:31:19.766Z,100590.09
2023-01-06T08:33:49.215Z,100575.91
2023-01-06T08:36:23.224Z,100593.37
2023-01-06T08:38:52.449Z,100589.63
2023-01-06T08:41:25.238Z,100591.97
2023-01-06T08:43:55.539Z,100579.66
2023-01-06T08:46:24.267Z,100582.69
2023-01-06T08:48:52.908Z,100580.50
2023-01-06T08:51:27.082Z,100587.13
2023-01-06T08:53:56.350Z,100593.22
2023-01-06T08:56:30.919Z,100602.16
2023-01-06T08:59:07.674Z,100613.81
2023-01-06T09:01:38.280Z,100615.47
2023-01-06T09:04:13.055Z,100625.75
2023-01-06T09:06:43.905Z,100625.81
2023-01-06T09:09:13.889Z,100629.75
2023-01-06T09:11:44.587Z,100634.75
2023-01-06T09:14:19.811Z,100627.88
2023-01-06T09:16:51.352Z,100636.84
2023-01-06T09:19:27.248Z,100636.69
2023-01-06T09:21:55.871Z,100643.00
2023-01-06T09:24:25.054Z,100641.34
2023-01-06T09:27:01.913Z,100643.63
2023-01-06T09:29:40.892Z,100644.03
2023-01-06T09:32:15.048Z,100643.78
2023-01-06T09:34:46.884Z,100650.31
2023-01-06T09:37:15.900Z,100650.00
2023-01-06T09:39:47.865Z,100648.97
2023-01-06T09:42:28.953Z,100643.94
2023-01-06T09:45:06.309Z,100644.28
2023-01-06T09:47:42.118Z,100635.12
2023-01-06T09:50:33.493Z,100642.25
2023-01-06T09:53:27.139Z,100638.66
2023-01-06T09:56:01.131Z,100641.81
2023-01-06T09:58:57.254Z,100640.81
2023-01-06T10:01:41.072Z,100642.34
2023-01-06T10:04:17.982Z,100637.16
2023-01-06T10:06:59.876Z,100647.06
2023-01-06T10:09:35.902Z,100646.13
2023-01-06T10:12:46.504Z,100629.78
2023-01-06T10:15:23.888Z,100636.28
2023-01-06T10:18:26.032Z,100635.25
2023-01-06T10:20:58.414Z,100637.94
2023-01-06T10:23:39.005Z,100643.44
2023-01-06T10:26:40.354Z,100631.16
2023-01-06T10:29:21.276Z,100625.94
2023-01-06T10:31:51.901Z,100626.06
2023-01-06T10:34:27.414Z,100618.91
2023-01-06T10:37:22.054Z,100615.69
2023-01-06T10:42:59.099Z,100622.94
2023-01-06T10:45:49.057Z,100618.97
2023-01-06T10:48:29.032Z,100630.41
2023-01-06T10:53:38.963Z,100626.72
2023-01-06T10:56:10.987Z,100616.53
2023-01-06T10:59:00.111Z,100619.69
2023-01-06T11:01:30.317Z,100619.13
2023-01-06T11:04:12.421Z,100623.63
2023-01-06T11:06:59.106Z,100617.81
2023-01-06T11:09:33.050Z,100613.00
2023-01-06T11:12:02.015Z,100604.13
2023-01-06T11:14:32.183Z,100610.22
2023-01-06T11:17:04.881Z,100612.28
2023-01-06T11:19:43.928Z,100606.69
2023-01-06T11:22:41.085Z,100608.41
2023-01-06T11:25:23.719Z,100604.84
2023-01-06T11:28:10.309Z,100604.97
2023-01-06T11:33:39.299Z,100605.34
2023-01-06T11:36:15.085Z,100597.28
2023-01-06T11:39:00.112Z,100596.16
2023-01-06T11:41:42.935Z,100598.53
2023-01-06T11:44:33.946Z,100587.72
2023-01-06T11:47:08.305Z,100584.06
2023-01-06T11:49:55.446Z,100581.38
2023-01-06T11:52:32.827Z,100581.22
2023-01-06T11:55:27.609Z,100572.59
2023-01-06T11:58:06.036Z,100585.34
2023-01-06T12:00:44.818Z,100581.72
2023-01-06T12:03:24.170Z,100584.88
2023-01-06T12:06:05.979Z,100578.50
2023-01-06T12:09:07.132Z,100569.16
2023-01-06T12:11:48.661Z,100566.78
2023-01-06T12:14:29.696Z,100554.44
2023-01-06T12:17:20.265Z,100555.03
2023-01-06T12:19:57.872Z,100541.59
2023-01-06T12:22:38.033Z,100538.53
2023-01-06T12:25:20.269Z,100537.97
2023-01-06T12:28:08.864Z,100531.38
2023-01-06T12:31:18.843Z,100532.06
2023-01-06T12:34:04.879Z,100534.84
2023-01-06T12:37:12.855Z,100521.78
2023-01-06T12:40:02.020Z,100516.31
2023-01-06T12:42:49.959Z,100523.41
2023-01-06T12:45:37.772Z,100527.50
2023-01-06T12:48:18.967Z,100512.72
2023-01-06T12:50:52.849Z,100521.22
2023-01-06T12:53:28.087Z,100513.81
2023-01-06T12:56:32.124Z,100509.69
2023-01-06T12:59:33.035Z,100500.06
2023-01-06T13:02:16.158Z,100508.13
2023-01-06T13:05:02.090Z,100506.41
2023-01-06T13:07:48.979Z,100499.66
2023-01-06T13:10:32.170Z,100497.44
2023-01-06T13:13:00.776Z,100499.97
2023-01-06T13:15:31.070Z,100501.41
2023-01-06T13:18:26.803Z,100503.00
2023-01-06T13:21:11.046Z,100502.38
2023-01-06T13:24:04.130Z,100503.00
2023-01-06T13:26:50.893Z,100512.09
2023-01-06T13:29:36.089Z,100505.88
2023-01-06T13:32:31.904Z,100511.44
2023-01-06T13:35:22.477Z,100506.94
2023-01-06T13:38:06.896Z,100510.06
2023-01-06T13:40:45.853Z,100500.81
2023-01-06T13:43:27.896Z,100502.38
2023-01-06T13:46:01.206Z,100508.88
2023-01-06T13:48:34.942Z,100513.75
2023-01-06T13:51:08.054Z,100509.72
2023-01-06T13:53:47.047Z,100513.88
2023-01-06T13:56:17.880Z,100502.53
2023-01-06T13:58:47.951Z,100507.56
2023-01-06T14:01:21.642Z,100508.22
2023-01-06T14:03:51.397Z,100499.97
2023-01-06T14:06:23.463Z,100500.78
2023-01-06T14:08:59.020Z,100504.63
2023-01-06T14:11:28.847Z,100506.72
2023-01-06T14:14:02.024Z,100512.28
2023-01-06T14:16:46.079Z,100507.28
2023-01-06T14:19:18.937Z,100505.34
2023-01-06T14:21:49.703Z,100505.63
2023-01-06T14:24:31.713Z,100506.25
2023-01-06T14:27:04.564Z,100509.97
2023-01-06T14:29:46.575Z,100510.09
2023-01-06T14:32:15.219Z,100506.34
2023-01-06T14:34:56.205Z,100511.97
2023-01-06T14:37:28.817Z,100509.88
2023-01-06T14:40:07.837Z,100499.84
2023-01-06T14:42:45.107Z,100509.91
2023-01-06T14:45:30.044Z,100509.69
2023-01-06T14:50:57.833Z,100508.00
2023-01-06T14:53:36.566Z,100515.34
2023-01-06T14:56:14.364Z,100510.75
2023-01-06T14:58:52.864Z,100510.06
2023-01-06T15:01:30.092Z,100518.34
2023-01-06T15:04:04.906Z,100514.03
2023-01-06T15:06:33.199Z,100511.75
2023-01-06T15:09:20.413Z,100509.97
2023-01-06T15:14:29.628Z,100515.59
2023-01-06T15:17:02.852Z,100520.72
2023-01-06T15:19:31.808Z,100513.81
2023-01-06T15:22:08.879Z,100517.31
2023-01-06T15:24:51.655Z,100520.03
2023-01-06T15:27:25.994Z,100514.00
2023-01-06T15:29:56.533Z,100510.25
2023-01-06T15:32:27.993Z,100514.38
2023-01-06T15:37:34.987Z,100524.91
2023-01-06T15:40:18.968Z,100517.00
2023-01-06T15:42:50.139Z,100519.56
2023-01-06T15:45:38.971Z,100516.50
2023-01-06T15:48:17.907Z,100522.31
2023-01-06T15:50:52.290Z,100520.00
2023-01-06T15:53:32.796Z,100520.12
2023-01-06T15:56:05.328Z,100530.47
2023-01-06T15:58:37.875Z,100533.84
2023-01-06T16:01:17.941Z,100535.47
2023-01-06T16:03:57.423Z,100535.41
2023-01-06T16:06:32.870Z,100532.19
2023-01-06T16:09:38.878Z,100539.19
2023-01-06T16:12:23.128Z,100538.06
2023-01-06T16:14:53.139Z,100537.91
2023-01-06T16:17:39.891Z,100536.53
2023-01-06T16:20:25.802Z,100531.44
2023-01-06T16:22:58.795Z,100541.81
2023-01-06T16:25:32.991Z,100538.47
2023-01-06T16:28:05.050Z,100538.69
2023-01-06T16:30:36.604Z,100533.56
2023-01-06T16:33:05.801Z,100542.63
2023-01-06T16:35:39.839Z,100538.19
2023-01-06T16:38:12.658Z,100541.03
2023-01-06T16:40:42.862Z,100550.22
2023-01-06T16:43:22.111Z,100544.94
2023-01-06T16:46:02.890Z,100538.94
2023-01-06T16:48:30.928Z,100556.06
2023-01-06T16:51:19.855Z,100546.63
2023-01-06T16:53:56.847Z,100531.59
2023-01-06T16:56:43.914Z,100536.03
2023-01-06T16:59:22.480Z,100535.97
2023-01-06T17:01:57.215Z,100537.53
2023-01-06T17:04:26.776Z,100538.06
2023-01-06T17:07:00.439Z,100553.78
2023-01-06T17:09:30.039Z,100537.12
2023-01-06T17:11:59.410Z,100545.09
2023-01-06T17:14:32.959Z,100535.59
2023-01-06T17:17:18.235Z,100523.34
2023-01-06T17:19:55.863Z,100523.28
2023-01-06T17:22:32.742Z,100516.78
2023-01-06T17:25:02.997Z,100523.00
2023-01-06T17:27:38.430Z,100525.22
2023-01-06T17:30:20.183Z,100531.22
2023-01-06T17:33:06.814Z,100538.19
2023-01-06T17:35:52.416Z,100547.69
2023-01-06T17:38:24.743Z,100551.09
2023-01-06T17:40:58.851Z,100551.03
2023-01-06T17:43:31.582Z,100550.62
2023-01-06T17:46:05.091Z,100556.88
2023-01-06T17:48:47.614Z,100544.34
2023-01-06T17:51:17.071Z,100552.03
2023-01-06T17:54:11.796Z,100551.09
2023-01-06T17:56:40.171Z,100546.63
2023-01-06T17:59:15.048Z,100551.97
2023-01-06T18:01:48.934Z,100555.44
2023-01-06T18:04:21.903Z,100559.19
2023-01-06T18:06:55.878Z,100559.06
2023-01-06T18:09:32.814Z,100564.16
2023-01-06T18:12:13.425Z,100580.06
2023-01-06T18:14:45.861Z,100573.91
2023-01-06T18:17:29.251Z,100573.41
2023-01-06T18:20:04.354Z,100579.31
2023-01-06T18:22:35.737Z,100576.31
2023-01-06T18:25:09.788Z,100565.22
2023-01-06T18:27:40.871Z,100566.44
2023-01-06T18:30:18.405Z,100573.72
2023-01-06T18:38:06.805Z,100554.84
2023-01-06T18:40:50.052Z,100553.44
2023-01-06T18:43:28.230Z,100561.75
2023-01-06T18:46:04.818Z,100562.53
2023-01-06T18:48:41.104Z,100573.28
2023-01-06T18:51:25.809Z,100567.34
2023-01-06T18:53:57.404Z,100572.25
2023-01-06T18:56:32.037Z,100581.50
2023-01-06T18:59:04.048Z,100577.91
2023-01-06T19:01:44.095Z,100584.03
2023-01-06T19:04:33.870Z,100581.34
2023-01-06T19:07:13.877Z,100581.72
2023-01-06T19:09:53.923Z,100592.66
2023-01-06T19:12:39.821Z,100581.22
2023-01-06T19:15:23.844Z,100581.09
2023-01-06T19:17:56.039Z,100568.87
2023-01-06T19:20:28.958Z,100567.97
2023-01-06T19:23:25.042Z,100567.22
2023-01-06T19:26:21.789Z,100561.72
2023-01-06T19:29:03.286Z,100564.09
2023-01-06T19:34:14.683Z,100548.16
2023-01-06T19:36:49.056Z,100550.31
2023-01-06T19:39:38.807Z,100545.91
2023-01-06T19:44:55.618Z,100550.81
2023-01-06T19:47:30.280Z,100540.12
2023-01-06T19:50:12.965Z,100544.00
2023-01-06T19:52:42.744Z,100543.84
2023-01-06T19:55:21.814Z,100544.09
2023-01-06T19:58:00.221Z,100551.84
2023-01-06T20:00:52.881Z,100534.22
2023-01-06T20:03:34.346Z,100530.56
2023-01-06T20:06:12.644Z,100532.34
2023-01-06T20:08:47.148Z,100532.97
2023-01-06T20:11:17.092Z,100532.88
2023-01-06T20:13:51.216Z,100535.87
2023-01-06T20:16:27.093Z,100544.28
2023-01-06T20:19:03.869Z,100539.88
2023-01-06T20:21:33.237Z,100546.75
2023-01-06T20:24:04.832Z,100552.88
2023-01-06T20:26:42.915Z,100542.63
2023-01-06T20:29:12.160Z,100548.47
2023-01-06T20:31:40.868Z,100547.56
2023-01-06T20:34:09.975Z,100545.84
2023-01-06T20:36:40.841Z,100554.28
2023-01-06T20:39:20.984Z,100549.00
2023-01-06T20:41:57.761Z,100546.13
2023-01-06T20:44:26.067Z,100540.22
2023-01-06T20:46:56.906Z,100550.97
2023-01-06T20:49:32.346Z,100552.50
2023-01-06T20:52:02.805Z,100543.50
2023-01-06T20:54:41.928Z,100550.78
2023-01-06T20:57:10.922Z,100554.22
2023-01-06T20:59:42.920Z,100564.94
2023-01-06T21:04:52.013Z,100552.41
2023-01-06T21:07:25.916Z,100558.63
2023-01-06T21:10:03.756Z,100550.84
2023-01-06T21:12:33.499Z,100546.50
2023-01-06T21:15:03.831Z,100543.84
2023-01-06T21:17:31.812Z,100541.03
2023-01-06T21:20:06.835Z,100539.72
2023-01-06T21:25:13.971Z,100533.97
2023-01-06T21:27:51.000Z,100540.25
2023-01-06T21:30:18.945Z,100546.06
2023-01-06T21:33:00.857Z,100553.19
2023-01-06T21:35:30.378Z,100550.13
2023-01-06T21:38:01.318Z,100545.91
2023-01-06T21:40:33.760Z,100544.28
2023-01-06T21:43:11.659Z,100562.69
2023-01-06T21:45:44.166Z,100558.91
2023-01-06T21:48:23.759Z,100541.94
2023-01-06T21:50:53.606Z,100556.69
2023-01-06T21:53:23.275Z,100539.25
2023-01-06T21:56:00.852Z,100546.00
2023-01-06T21:58:29.435Z,100542.28
2023-01-06T22:00:58.335Z,100542.63
2023-01-06T22:03:30.811Z,100546.94
2023-01-06T22:06:02.033Z,100547.56
2023-01-06T22:08:34.022Z,100539.38
2023-01-06T22:11:09.639Z,100539.41
2023-01-06T22:13:39.707Z,100539.34
2023-01-06T22:16:09.175Z,100526.81
2023-01-06T22:18:37.949Z,100527.63
2023-01-06T22:21:07.298Z,100524.47
2023-01-06T22:23:39.838Z,100525.41
2023-01-06T22:26:10.757Z,100528.94
2023-01-06T22:28:39.014Z,100529.41
2023-01-06T22:31:07.160Z,100525.16
2023-01-06T22:33:36.488Z,100522.84
2023-01-06T22:36:05.807Z,100525.66
2023-01-06T22:38:34.530Z,100526.22
2023-01-06T22:41:03.082Z,100515.31
2023-01-06T22:43:35.930Z,100527.50
2023-01-06T22:46:04.096Z,100535.22
2023-01-06T22:48:31.860Z,100535.97
2023-01-06T22:51:04.792Z,100537.75
2023-01-06T22:53:37.185Z,100525.59
2023-01-06T22:56:11.061Z,100528.97
2023-01-06T22:58:43.034Z,100521.94
2023-01-06T23:01:12.306Z,100516.66
2023-01-06T23:03:40.326Z,100508.13
2023-01-06T23:06:13.468Z,100518.75
2023-01-06T23:08:59.014Z,100516.97
2023-01-06T23:11:33.917Z,100515.37
2023-01-06T23:14:05.428Z,100512.72
2023-01-06T23:16:38.295Z,100514.63
2023-01-06T23:19:15.575Z,100515.59
2023-01-06T23:21:47.005Z,100520.81
2023-01-06T23:24:17.144Z,100522.81
2023-01-06T23:26:46.498Z,100520.47
2023-01-06T23:29:14.384Z,100520.38
2023-01-06T23:31:44.633Z,100514.84
2023-01-06T23:34:16.142Z,100516.88
2023-01-06T23:36:44.708Z,100519.78
2023-01-06T23:39:15.539Z,100513.59
2023-01-06T23:41:45.685Z,100514.50
2023-01-06T23:44:15.170Z,100516.47
2023-01-06T23:46:44.147Z,100518.34
2023-01-06T23:49:18.740Z,100514.09
2023-01-06T23:51:46.801Z,100519.53
2023-01-06T23:54:15.310Z,100523.12
2023-01-06T23:56:44.075Z,100522.22
2023-01-06T23:59:12.634Z,100529.91
